sensor_id;sensor_type;location;lat;lon;timestamp;P1;durP1;ratioP1;P2;durP2;ratioP2
62102;SDS011;48077;48.104;11.702;2022-10-30T00:00:10;9.38;;;2.63;;
62102;SDS011;48077;48.104;11.702;2022-10-30T00:02:33;4.90;;;2.35;;
62102;SDS011;48077;48.104;11.702;2022-10-30T00:04:57;8.10;;;3.22;;
62102;SDS011;48077;48.104;11.702;2022-10-30T00:07:20;10.40;;;3.70;;
62102;SDS011;48077;48.104;11.702;2022-10-30T00:09:43;6.90;;;2.65;;
62102;SDS011;48077;48.104;11.702;2022-10-30T00:12:07;5.15;;;2.17;;
62102;SDS011;48077;48.104;11.702;2022-10-30T00:14:30;8.13;;;2.78;;
62102;SDS011;48077;48.104;11.702;2022-10-30T00:16:53;8.63;;;3.05;;
62102;SDS011;48077;48.104;11.702;2022-10-30T00:19:17;6.97;;;2.50;;
62102;SDS011;48077;48.104;11.702;2022-10-30T00:21:40;6.28;;;2.42;;
62102;SDS011;48077;48.104;11.702;2022-10-30T00:24:04;3.90;;;2.10;;
62102;SDS011;48077;48.104;11.702;2022-10-30T00:26:29;5.57;;;1.95;;
62102;SDS011;48077;48.104;11.702;2022-10-30T00:28:54;6.30;;;2.30;;
62102;SDS011;48077;48.104;11.702;2022-10-30T00:31:19;5.47;;;3.00;;
62102;SDS011;48077;48.104;11.702;2022-10-30T00:33:47;8.65;;;3.22;;
62102;SDS011;48077;48.104;11.702;2022-10-30T00:36:11;4.80;;;2.30;;
62102;SDS011;48077;48.104;11.702;2022-10-30T00:38:35;6.65;;;2.22;;
62102;SDS011;48077;48.104;11.702;2022-10-30T00:40:58;4.22;;;2.30;;
62102;SDS011;48077;48.104;11.702;2022-10-30T00:43:40;7.35;;;2.47;;
62102;SDS011;48077;48.104;11.702;2022-10-30T00:48:55;8.85;;;2.70;;
62102;SDS011;48077;48.104;11.702;2022-10-30T00:51:24;5.63;;;2.08;;
62102;SDS011;48077;48.104;11.702;2022-10-30T00:53:50;5.38;;;2.00;;
62102;SDS011;48077;48.104;11.702;2022-10-30T00:56:14;5.63;;;2.13;;
62102;SDS011;48077;48.104;11.702;2022-10-30T00:58:43;10.38;;;2.40;;
62102;SDS011;48077;48.104;11.702;2022-10-30T01:01:11;9.20;;;2.58;;
62102;SDS011;48077;48.104;11.702;2022-10-30T01:03:38;7.90;;;2.42;;
62102;SDS011;48077;48.104;11.702;2022-10-30T01:06:03;10.52;;;2.97;;
62102;SDS011;48077;48.104;11.702;2022-10-30T01:08:31;6.38;;;2.78;;
62102;SDS011;48077;48.104;11.702;2022-10-30T01:10:56;7.32;;;2.40;;
62102;SDS011;48077;48.104;11.702;2022-10-30T01:13:21;6.43;;;2.85;;
62102;SDS011;48077;48.104;11.702;2022-10-30T01:15:51;7.03;;;2.35;;
62102;SDS011;48077;48.104;11.702;2022-10-30T01:18:45;5.45;;;2.33;;
62102;SDS011;48077;48.104;11.702;2022-10-30T01:26:36;4.63;;;2.72;;
62102;SDS011;48077;48.104;11.702;2022-10-30T01:37:53;5.13;;;2.28;;
62102;SDS011;48077;48.104;11.702;2022-10-30T01:40:24;7.15;;;2.63;;
62102;SDS011;48077;48.104;11.702;2022-10-30T01:42:57;7.88;;;3.20;;
62102;SDS011;48077;48.104;11.702;2022-10-30T01:45:34;6.80;;;2.53;;
62102;SDS011;48077;48.104;11.702;2022-10-30T01:48:21;7.28;;;2.42;;
62102;SDS011;48077;48.104;11.702;2022-10-30T01:51:11;6.85;;;2.25;;
62102;SDS011;48077;48.104;11.702;2022-10-30T01:59:15;9.15;;;2.38;;
62102;SDS011;48077;48.104;11.702;2022-10-30T02:01:45;11.80;;;4.13;;
62102;SDS011;48077;48.104;11.702;2022-10-30T02:04:08;6.80;;;2.53;;
62102;SDS011;48077;48.104;11.702;2022-10-30T02:06:35;6.15;;;2.30;;
62102;SDS011;48077;48.104;11.702;2022-10-30T02:08:59;3.88;;;2.03;;
62102;SDS011;48077;48.104;11.702;2022-10-30T02:11:23;7.75;;;2.20;;
62102;SDS011;48077;48.104;11.702;2022-10-30T02:13:48;6.40;;;2.85;;
62102;SDS011;48077;48.104;11.702;2022-10-30T02:16:14;6.35;;;2.97;;
62102;SDS011;48077;48.104;11.702;2022-10-30T02:18:38;5.20;;;2.53;;
62102;SDS011;48077;48.104;11.702;2022-10-30T02:21:02;7.97;;;2.00;;
62102;SDS011;48077;48.104;11.702;2022-10-30T02:23:25;15.43;;;2.75;;
62102;SDS011;48077;48.104;11.702;2022-10-30T02:25:48;6.78;;;2.75;;
62102;SDS011;48077;48.104;11.702;2022-10-30T02:28:12;7.22;;;1.90;;
62102;SDS011;48077;48.104;11.702;2022-10-30T02:30:35;7.30;;;2.67;;
62102;SDS011;48077;48.104;11.702;2022-10-30T02:32:59;6.25;;;2.80;;
62102;SDS011;48077;48.104;11.702;2022-10-30T02:35:22;4.90;;;2.05;;
62102;SDS011;48077;48.104;11.702;2022-10-30T02:37:48;5.38;;;2.10;;
62102;SDS011;48077;48.104;11.702;2022-10-30T02:40:12;6.60;;;2.35;;
62102;SDS011;48077;48.104;11.702;2022-10-30T02:42:35;5.25;;;2.50;;
62102;SDS011;48077;48.104;11.702;2022-10-30T02:44:59;8.52;;;2.10;;
62102;SDS011;48077;48.104;11.702;2022-10-30T02:47:24;8.43;;;2.80;;
62102;SDS011;48077;48.104;11.702;2022-10-30T02:49:48;5.97;;;2.05;;
62102;SDS011;48077;48.104;11.702;2022-10-30T02:52:11;5.03;;;2.20;;
62102;SDS011;48077;48.104;11.702;2022-10-30T02:54:35;6.85;;;2.22;;
62102;SDS011;48077;48.104;11.702;2022-10-30T02:56:58;5.70;;;2.28;;
62102;SDS011;48077;48.104;11.702;2022-10-30T02:59:21;6.32;;;2.75;;
62102;SDS011;48077;48.104;11.702;2022-10-30T03:01:45;5.53;;;3.05;;
62102;SDS011;48077;48.104;11.702;2022-10-30T03:04:08;6.82;;;2.22;;
62102;SDS011;48077;48.104;11.702;2022-10-30T03:06:31;7.22;;;2.33;;
62102;SDS011;48077;48.104;11.702;2022-10-30T03:08:55;5.60;;;2.42;;
62102;SDS011;48077;48.104;11.702;2022-10-30T03:11:18;5.82;;;2.42;;
62102;SDS011;48077;48.104;11.702;2022-10-30T03:13:43;8.05;;;2.92;;
62102;SDS011;48077;48.104;11.702;2022-10-30T03:16:11;7.88;;;3.22;;
62102;SDS011;48077;48.104;11.702;2022-10-30T03:21:01;7.22;;;2.10;;
62102;SDS011;48077;48.104;11.702;2022-10-30T03:23:28;4.35;;;2.53;;
62102;SDS011;48077;48.104;11.702;2022-10-30T03:25:56;7.13;;;2.33;;
62102;SDS011;48077;48.104;11.702;2022-10-30T03:28:21;8.68;;;2.35;;
62102;SDS011;48077;48.104;11.702;2022-10-30T03:30:46;8.07;;;2.78;;
62102;SDS011;48077;48.104;11.702;2022-10-30T03:33:10;6.50;;;2.20;;
62102;SDS011;48077;48.104;11.702;2022-10-30T03:35:34;8.15;;;2.33;;
62102;SDS011;48077;48.104;11.702;2022-10-30T03:37:58;3.25;;;1.95;;
62102;SDS011;48077;48.104;11.702;2022-10-30T03:40:21;7.05;;;2.28;;
62102;SDS011;48077;48.104;11.702;2022-10-30T03:42:45;5.32;;;1.75;;
62102;SDS011;48077;48.104;11.702;2022-10-30T03:45:08;7.50;;;2.28;;
62102;SDS011;48077;48.104;11.702;2022-10-30T03:47:32;10.68;;;2.33;;
62102;SDS011;48077;48.104;11.702;2022-10-30T03:49:55;6.65;;;2.20;;
62102;SDS011;48077;48.104;11.702;2022-10-30T03:52:18;7.75;;;2.42;;
62102;SDS011;48077;48.104;11.702;2022-10-30T03:54:42;4.95;;;2.58;;
62102;SDS011;48077;48.104;11.702;2022-10-30T03:57:05;4.88;;;2.00;;
62102;SDS011;48077;48.104;11.702;2022-10-30T03:59:28;9.98;;;3.72;;
62102;SDS011;48077;48.104;11.702;2022-10-30T04:01:52;4.63;;;2.47;;
62102;SDS011;48077;48.104;11.702;2022-10-30T04:04:15;7.13;;;2.22;;
62102;SDS011;48077;48.104;11.702;2022-10-30T04:06:38;5.45;;;2.17;;
62102;SDS011;48077;48.104;11.702;2022-10-30T04:09:02;4.53;;;2.22;;
62102;SDS011;48077;48.104;11.702;2022-10-30T04:11:25;5.22;;;1.73;;
62102;SDS011;48077;48.104;11.702;2022-10-30T04:13:48;5.95;;;2.00;;
62102;SDS011;48077;48.104;11.702;2022-10-30T04:16:12;8.70;;;2.22;;
62102;SDS011;48077;48.104;11.702;2022-10-30T04:18:35;7.57;;;2.45;;
62102;SDS011;48077;48.104;11.702;2022-10-30T04:20:59;5.22;;;2.20;;
62102;SDS011;48077;48.104;11.702;2022-10-30T04:23:22;6.07;;;2.92;;
62102;SDS011;48077;48.104;11.702;2022-10-30T04:25:47;7.65;;;2.50;;
62102;SDS011;48077;48.104;11.702;2022-10-30T04:28:11;10.07;;;4.13;;
62102;SDS011;48077;48.104;11.702;2022-10-30T04:30:35;5.65;;;2.50;;
62102;SDS011;48077;48.104;11.702;2022-10-30T04:32:58;7.28;;;2.25;;
62102;SDS011;48077;48.104;11.702;2022-10-30T04:35:23;8.93;;;2.60;;
62102;SDS011;48077;48.104;11.702;2022-10-30T04:37:55;6.75;;;2.67;;
62102;SDS011;48077;48.104;11.702;2022-10-30T04:40:23;7.55;;;2.58;;
62102;SDS011;48077;48.104;11.702;2022-10-30T04:42:48;5.68;;;2.17;;
62102;SDS011;48077;48.104;11.702;2022-10-30T04:45:12;5.78;;;2.70;;
62102;SDS011;48077;48.104;11.702;2022-10-30T04:47:35;7.25;;;2.55;;
62102;SDS011;48077;48.104;11.702;2022-10-30T04:49:58;7.38;;;2.03;;
62102;SDS011;48077;48.104;11.702;2022-10-30T04:52:22;5.63;;;2.15;;
62102;SDS011;48077;48.104;11.702;2022-10-30T04:54:45;5.00;;;2.55;;
62102;SDS011;48077;48.104;11.702;2022-10-30T04:57:08;6.70;;;2.45;;
62102;SDS011;48077;48.104;11.702;2022-10-30T04:59:32;8.00;;;2.20;;
62102;SDS011;48077;48.104;11.702;2022-10-30T05:01:55;7.55;;;2.70;;
62102;SDS011;48077;48.104;11.702;2022-10-30T05:04:18;10.85;;;3.00;;
62102;SDS011;48077;48.104;11.702;2022-10-30T05:06:42;5.38;;;1.88;;
62102;SDS011;48077;48.104;11.702;2022-10-30T05:09:05;9.80;;;2.80;;
62102;SDS011;48077;48.104;11.702;2022-10-30T05:11:28;8.40;;;2.55;;
62102;SDS011;48077;48.104;11.702;2022-10-30T05:13:52;6.45;;;2.33;;
62102;SDS011;48077;48.104;11.702;2022-10-30T05:16:15;9.32;;;2.58;;
62102;SDS011;48077;48.104;11.702;2022-10-30T05:18:39;7.70;;;2.70;;
62102;SDS011;48077;48.104;11.702;2022-10-30T05:21:02;6.75;;;2.42;;
62102;SDS011;48077;48.104;11.702;2022-10-30T05:23:26;5.13;;;2.25;;
62102;SDS011;48077;48.104;11.702;2022-10-30T05:25:49;6.07;;;2.83;;
62102;SDS011;48077;48.104;11.702;2022-10-30T05:28:12;5.18;;;2.03;;
62102;SDS011;48077;48.104;11.702;2022-10-30T05:30:36;7.70;;;2.58;;
62102;SDS011;48077;48.104;11.702;2022-10-30T05:33:00;5.65;;;2.55;;
62102;SDS011;48077;48.104;11.702;2022-10-30T05:35:25;7.90;;;2.92;;
62102;SDS011;48077;48.104;11.702;2022-10-30T05:37:49;8.65;;;3.35;;
62102;SDS011;48077;48.104;11.702;2022-10-30T05:40:13;14.75;;;5.25;;
62102;SDS011;48077;48.104;11.702;2022-10-30T05:42:36;24.17;;;8.57;;
62102;SDS011;48077;48.104;11.702;2022-10-30T05:44:59;32.65;;;10.02;;
62102;SDS011;48077;48.104;11.702;2022-10-30T05:47:23;28.00;;;10.80;;
62102;SDS011;48077;48.104;11.702;2022-10-30T05:49:46;29.13;;;10.55;;
62102;SDS011;48077;48.104;11.702;2022-10-30T05:52:09;21.55;;;7.53;;
62102;SDS011;48077;48.104;11.702;2022-10-30T05:54:33;17.70;;;6.60;;
62102;SDS011;48077;48.104;11.702;2022-10-30T05:56:56;13.98;;;4.57;;
62102;SDS011;48077;48.104;11.702;2022-10-30T05:59:20;17.60;;;4.28;;
62102;SDS011;48077;48.104;11.702;2022-10-30T06:01:43;10.43;;;3.97;;
62102;SDS011;48077;48.104;11.702;2022-10-30T06:04:07;11.02;;;3.67;;
62102;SDS011;48077;48.104;11.702;2022-10-30T06:06:31;6.75;;;2.60;;
62102;SDS011;48077;48.104;11.702;2022-10-30T06:08:54;9.63;;;3.00;;
62102;SDS011;48077;48.104;11.702;2022-10-30T06:11:18;8.77;;;2.72;;
62102;SDS011;48077;48.104;11.702;2022-10-30T06:13:41;7.78;;;3.10;;
62102;SDS011;48077;48.104;11.702;2022-10-30T06:16:04;5.25;;;2.90;;
62102;SDS011;48077;48.104;11.702;2022-10-30T06:18:28;6.22;;;2.90;;
62102;SDS011;48077;48.104;11.702;2022-10-30T06:20:53;5.82;;;2.50;;
62102;SDS011;48077;48.104;11.702;2022-10-30T06:23:17;5.88;;;2.15;;
62102;SDS011;48077;48.104;11.702;2022-10-30T06:25:40;7.00;;;2.30;;
62102;SDS011;48077;48.104;11.702;2022-10-30T06:28:04;7.53;;;3.20;;
62102;SDS011;48077;48.104;11.702;2022-10-30T06:30:28;9.07;;;2.75;;
62102;SDS011;48077;48.104;11.702;2022-10-30T06:32:55;10.75;;;2.90;;
62102;SDS011;48077;48.104;11.702;2022-10-30T06:35:22;8.45;;;4.00;;
62102;SDS011;48077;48.104;11.702;2022-10-30T06:37:46;6.10;;;3.08;;
62102;SDS011;48077;48.104;11.702;2022-10-30T06:40:10;6.97;;;2.60;;
62102;SDS011;48077;48.104;11.702;2022-10-30T06:42:40;14.27;;;3.97;;
62102;SDS011;48077;48.104;11.702;2022-10-30T06:45:07;6.85;;;3.00;;
62102;SDS011;48077;48.104;11.702;2022-10-30T06:47:33;7.40;;;2.92;;
62102;SDS011;48077;48.104;11.702;2022-10-30T06:49:57;8.30;;;2.88;;
62102;SDS011;48077;48.104;11.702;2022-10-30T06:52:20;6.35;;;2.58;;
62102;SDS011;48077;48.104;11.702;2022-10-30T06:54:45;7.43;;;2.90;;
62102;SDS011;48077;48.104;11.702;2022-10-30T06:57:08;8.50;;;2.58;;
62102;SDS011;48077;48.104;11.702;2022-10-30T06:59:32;8.45;;;2.88;;
62102;SDS011;48077;48.104;11.702;2022-10-30T07:01:55;9.38;;;3.08;;
62102;SDS011;48077;48.104;11.702;2022-10-30T07:04:19;7.25;;;3.03;;
62102;SDS011;48077;48.104;11.702;2022-10-30T07:06:42;6.05;;;2.47;;
62102;SDS011;48077;48.104;11.702;2022-10-30T07:09:06;8.68;;;3.08;;
62102;SDS011;48077;48.104;11.702;2022-10-30T07:11:29;9.00;;;2.85;;
62102;SDS011;48077;48.104;11.702;2022-10-30T07:13:52;5.40;;;2.53;;
62102;SDS011;48077;48.104;11.702;2022-10-30T07:16:16;5.70;;;2.47;;
62102;SDS011;48077;48.104;11.702;2022-10-30T07:18:39;4.47;;;2.33;;
62102;SDS011;48077;48.104;11.702;2022-10-30T07:21:02;5.72;;;2.88;;
62102;SDS011;48077;48.104;11.702;2022-10-30T07:23:26;6.78;;;3.10;;
62102;SDS011;48077;48.104;11.702;2022-10-30T07:25:49;8.00;;;3.13;;
62102;SDS011;48077;48.104;11.702;2022-10-30T07:28:12;7.43;;;3.58;;
62102;SDS011;48077;48.104;11.702;2022-10-30T07:30:36;7.95;;;4.05;;
62102;SDS011;48077;48.104;11.702;2022-10-30T07:33:00;16.55;;;4.03;;
62102;SDS011;48077;48.104;11.702;2022-10-30T07:35:26;10.27;;;3.97;;
62102;SDS011;48077;48.104;11.702;2022-10-30T07:37:49;9.82;;;4.07;;
62102;SDS011;48077;48.104;11.702;2022-10-30T07:40:13;10.50;;;4.03;;
62102;SDS011;48077;48.104;11.702;2022-10-30T07:42:36;10.60;;;3.28;;
62102;SDS011;48077;48.104;11.702;2022-10-30T07:45:00;6.65;;;3.05;;
62102;SDS011;48077;48.104;11.702;2022-10-30T07:47:23;7.43;;;3.67;;
62102;SDS011;48077;48.104;11.702;2022-10-30T07:49:46;7.88;;;3.20;;
62102;SDS011;48077;48.104;11.702;2022-10-30T07:52:10;5.97;;;3.10;;
62102;SDS011;48077;48.104;11.702;2022-10-30T07:54:33;5.90;;;2.60;;
62102;SDS011;48077;48.104;11.702;2022-10-30T07:56:56;7.60;;;3.25;;
62102;SDS011;48077;48.104;11.702;2022-10-30T07:59:20;6.15;;;2.45;;
62102;SDS011;48077;48.104;11.702;2022-10-30T08:01:44;5.93;;;2.55;;
62102;SDS011;48077;48.104;11.702;2022-10-30T08:04:07;7.43;;;3.40;;
62102;SDS011;48077;48.104;11.702;2022-10-30T08:06:33;5.00;;;2.38;;
62102;SDS011;48077;48.104;11.702;2022-10-30T08:08:59;4.97;;;2.55;;
62102;SDS011;48077;48.104;11.702;2022-10-30T08:11:22;5.80;;;2.25;;
62102;SDS011;48077;48.104;11.702;2022-10-30T08:13:46;5.18;;;2.30;;
62102;SDS011;48077;48.104;11.702;2022-10-30T08:16:09;7.70;;;2.35;;
62102;SDS011;48077;48.104;11.702;2022-10-30T08:18:32;4.80;;;2.15;;
62102;SDS011;48077;48.104;11.702;2022-10-30T08:20:56;8.85;;;2.65;;
62102;SDS011;48077;48.104;11.702;2022-10-30T08:23:19;5.97;;;2.25;;
62102;SDS011;48077;48.104;11.702;2022-10-30T08:25:43;7.25;;;2.90;;
62102;SDS011;48077;48.104;11.702;2022-10-30T08:28:07;5.20;;;2.53;;
62102;SDS011;48077;48.104;11.702;2022-10-30T08:30:31;5.60;;;2.28;;
62102;SDS011;48077;48.104;11.702;2022-10-30T08:32:57;4.55;;;2.10;;
62102;SDS011;48077;48.104;11.702;2022-10-30T08:35:21;7.43;;;2.20;;
62102;SDS011;48077;48.104;11.702;2022-10-30T08:37:44;6.20;;;2.42;;
62102;SDS011;48077;48.104;11.702;2022-10-30T08:40:09;7.50;;;2.67;;
62102;SDS011;48077;48.104;11.702;2022-10-30T08:42:33;7.20;;;2.15;;
62102;SDS011;48077;48.104;11.702;2022-10-30T08:44:56;4.03;;;1.88;;
62102;SDS011;48077;48.104;11.702;2022-10-30T08:47:20;12.02;;;2.40;;
62102;SDS011;48077;48.104;11.702;2022-10-30T08:49:43;10.65;;;2.60;;
62102;SDS011;48077;48.104;11.702;2022-10-30T08:52:07;7.60;;;2.63;;
62102;SDS011;48077;48.104;11.702;2022-10-30T08:54:31;6.80;;;2.08;;
62102;SDS011;48077;48.104;11.702;2022-10-30T08:56:54;5.20;;;2.10;;
62102;SDS011;48077;48.104;11.702;2022-10-30T08:59:17;6.38;;;2.13;;
62102;SDS011;48077;48.104;11.702;2022-10-30T09:01:41;7.88;;;2.72;;
62102;SDS011;48077;48.104;11.702;2022-10-30T09:04:05;6.35;;;2.75;;
62102;SDS011;48077;48.104;11.702;2022-10-30T09:06:29;4.43;;;1.77;;
62102;SDS011;48077;48.104;11.702;2022-10-30T09:08:53;6.07;;;2.30;;
62102;SDS011;48077;48.104;11.702;2022-10-30T09:11:19;9.13;;;3.78;;
62102;SDS011;48077;48.104;11.702;2022-10-30T09:13:42;6.40;;;2.20;;
62102;SDS011;48077;48.104;11.702;2022-10-30T09:16:05;6.55;;;2.88;;
62102;SDS011;48077;48.104;11.702;2022-10-30T09:18:29;8.18;;;2.13;;
62102;SDS011;48077;48.104;11.702;2022-10-30T09:20:52;5.90;;;2.00;;
62102;SDS011;48077;48.104;11.702;2022-10-30T09:23:16;6.63;;;2.22;;
62102;SDS011;48077;48.104;11.702;2022-10-30T09:25:39;5.32;;;2.40;;
62102;SDS011;48077;48.104;11.702;2022-10-30T09:28:03;8.65;;;2.38;;
62102;SDS011;48077;48.104;11.702;2022-10-30T09:30:26;7.20;;;2.70;;
62102;SDS011;48077;48.104;11.702;2022-10-30T09:32:56;5.43;;;2.38;;
62102;SDS011;48077;48.104;11.702;2022-10-30T09:35:24;6.25;;;2.40;;
62102;SDS011;48077;48.104;11.702;2022-10-30T09:37:48;5.38;;;2.25;;
62102;SDS011;48077;48.104;11.702;2022-10-30T09:41:01;5.22;;;2.17;;
62102;SDS011;48077;48.104;11.702;2022-10-30T09:43:18;3.70;;;1.88;;
62102;SDS011;48077;48.104;11.702;2022-10-30T09:45:55;4.88;;;2.30;;
62102;SDS011;48077;48.104;11.702;2022-10-30T09:51:16;7.68;;;2.60;;
62102;SDS011;48077;48.104;11.702;2022-10-30T09:54:10;13.98;;;3.00;;
62102;SDS011;48077;48.104;11.702;2022-10-30T09:56:43;6.90;;;1.90;;
62102;SDS011;48077;48.104;11.702;2022-10-30T10:07:20;8.13;;;2.53;;
62102;SDS011;48077;48.104;11.702;2022-10-30T10:09:48;4.90;;;2.00;;
62102;SDS011;48077;48.104;11.702;2022-10-30T10:12:18;4.47;;;2.13;;
62102;SDS011;48077;48.104;11.702;2022-10-30T10:14:51;8.02;;;2.10;;
62102;SDS011;48077;48.104;11.702;2022-10-30T10:17:36;8.43;;;2.88;;
62102;SDS011;48077;48.104;11.702;2022-10-30T10:20:03;10.85;;;3.13;;
62102;SDS011;48077;48.104;11.702;2022-10-30T10:25:03;7.22;;;2.75;;
62102;SDS011;48077;48.104;11.702;2022-10-30T10:30:34;11.60;;;2.78;;
62102;SDS011;48077;48.104;11.702;2022-10-30T10:35:57;6.35;;;2.15;;
62102;SDS011;48077;48.104;11.702;2022-10-30T10:44:02;5.57;;;2.33;;
62102;SDS011;48077;48.104;11.702;2022-10-30T10:50:31;13.20;;;2.88;;
62102;SDS011;48077;48.104;11.702;2022-10-30T10:52:59;9.73;;;3.20;;
62102;SDS011;48077;48.104;11.702;2022-10-30T10:55:30;10.57;;;3.50;;
62102;SDS011;48077;48.104;11.702;2022-10-30T10:57:57;7.55;;;2.45;;
62102;SDS011;48077;48.104;11.702;2022-10-30T11:00:27;9.98;;;3.13;;
62102;SDS011;48077;48.104;11.702;2022-10-30T11:03:08;12.38;;;4.47;;
62102;SDS011;48077;48.104;11.702;2022-10-30T11:05:40;7.50;;;3.03;;
62102;SDS011;48077;48.104;11.702;2022-10-30T11:08:32;8.00;;;2.90;;
62102;SDS011;48077;48.104;11.702;2022-10-30T11:13:22;10.70;;;3.35;;
62102;SDS011;48077;48.104;11.702;2022-10-30T11:16:03;8.90;;;4.85;;
62102;SDS011;48077;48.104;11.702;2022-10-30T11:18:39;12.18;;;4.15;;
62102;SDS011;48077;48.104;11.702;2022-10-30T11:21:10;14.95;;;3.40;;
62102;SDS011;48077;48.104;11.702;2022-10-30T11:23:40;11.55;;;3.42;;
62102;SDS011;48077;48.104;11.702;2022-10-30T11:28:41;9.20;;;3.30;;
62102;SDS011;48077;48.104;11.702;2022-10-30T11:31:23;11.85;;;3.28;;
62102;SDS011;48077;48.104;11.702;2022-10-30T11:33:56;9.95;;;3.10;;
62102;SDS011;48077;48.104;11.702;2022-10-30T11:36:23;11.65;;;3.70;;
62102;SDS011;48077;48.104;11.702;2022-10-30T11:38:48;8.35;;;3.50;;
62102;SDS011;48077;48.104;11.702;2022-10-30T11:41:11;9.75;;;3.15;;
62102;SDS011;48077;48.104;11.702;2022-10-30T11:43:36;9.75;;;2.97;;
62102;SDS011;48077;48.104;11.702;2022-10-30T11:46:02;10.25;;;3.88;;
62102;SDS011;48077;48.104;11.702;2022-10-30T11:48:31;9.27;;;3.00;;
62102;SDS011;48077;48.104;11.702;2022-10-30T11:50:59;9.27;;;3.95;;
62102;SDS011;48077;48.104;11.702;2022-10-30T11:53:25;11.18;;;3.15;;
62102;SDS011;48077;48.104;11.702;2022-10-30T11:55:53;20.98;;;4.35;;
62102;SDS011;48077;48.104;11.702;2022-10-30T11:58:21;12.63;;;3.17;;
62102;SDS011;48077;48.104;11.702;2022-10-30T12:00:46;8.02;;;3.00;;
62102;SDS011;48077;48.104;11.702;2022-10-30T12:03:26;8.90;;;3.03;;
62102;SDS011;48077;48.104;11.702;2022-10-30T12:05:52;8.88;;;3.17;;
62102;SDS011;48077;48.104;11.702;2022-10-30T12:09:03;8.20;;;2.75;;
62102;SDS011;48077;48.104;11.702;2022-10-30T12:11:30;12.73;;;3.70;;
62102;SDS011;48077;48.104;11.702;2022-10-30T12:13:55;10.27;;;2.97;;
62102;SDS011;48077;48.104;11.702;2022-10-30T12:16:20;16.52;;;4.00;;
62102;SDS011;48077;48.104;11.702;2022-10-30T12:21:20;8.63;;;3.47;;
62102;SDS011;48077;48.104;11.702;2022-10-30T12:23:43;14.65;;;3.88;;
62102;SDS011;48077;48.104;11.702;2022-10-30T12:26:15;9.15;;;3.22;;
62102;SDS011;48077;48.104;11.702;2022-10-30T12:28:38;15.18;;;3.67;;
62102;SDS011;48077;48.104;11.702;2022-10-30T12:33:40;4.88;;;2.60;;
62102;SDS011;48077;48.104;11.702;2022-10-30T12:36:12;9.88;;;2.92;;
62102;SDS011;48077;48.104;11.702;2022-10-30T12:39:02;11.32;;;3.40;;
62102;SDS011;48077;48.104;11.702;2022-10-30T12:41:35;9.02;;;3.45;;
62102;SDS011;48077;48.104;11.702;2022-10-30T12:49:13;7.93;;;2.40;;
62102;SDS011;48077;48.104;11.702;2022-10-30T12:51:55;7.22;;;2.85;;
62102;SDS011;48077;48.104;11.702;2022-10-30T12:57:16;9.52;;;3.13;;
62102;SDS011;48077;48.104;11.702;2022-10-30T13:00:09;7.28;;;3.00;;
62102;SDS011;48077;48.104;11.702;2022-10-30T13:05:46;12.27;;;3.45;;
62102;SDS011;48077;48.104;11.702;2022-10-30T13:08:32;8.82;;;3.15;;
62102;SDS011;48077;48.104;11.702;2022-10-30T13:11:08;12.48;;;3.17;;
62102;SDS011;48077;48.104;11.702;2022-10-30T13:13:40;8.35;;;2.97;;
62102;SDS011;48077;48.104;11.702;2022-10-30T13:16:12;7.68;;;2.97;;
62102;SDS011;48077;48.104;11.702;2022-10-30T13:18:39;14.00;;;3.25;;
62102;SDS011;48077;48.104;11.702;2022-10-30T13:23:52;9.32;;;2.97;;
62102;SDS011;48077;48.104;11.702;2022-10-30T13:26:29;8.82;;;2.58;;
62102;SDS011;48077;48.104;11.702;2022-10-30T13:29:12;9.90;;;2.75;;
62102;SDS011;48077;48.104;11.702;2022-10-30T13:32:01;11.00;;;2.83;;
62102;SDS011;48077;48.104;11.702;2022-10-30T13:34:39;9.82;;;3.55;;
62102;SDS011;48077;48.104;11.702;2022-10-30T13:37:26;8.52;;;2.78;;
62102;SDS011;48077;48.104;11.702;2022-10-30T13:40:11;8.63;;;2.97;;
62102;SDS011;48077;48.104;11.702;2022-10-30T13:45:35;6.07;;;2.28;;
62102;SDS011;48077;48.104;11.702;2022-10-30T13:53:33;11.30;;;3.35;;
62102;SDS011;48077;48.104;11.702;2022-10-30T13:56:00;11.23;;;3.38;;
62102;SDS011;48077;48.104;11.702;2022-10-30T14:01:00;11.45;;;3.58;;
62102;SDS011;48077;48.104;11.702;2022-10-30T14:03:57;17.60;;;3.70;;
62102;SDS011;48077;48.104;11.702;2022-10-30T14:09:23;12.38;;;3.70;;
62102;SDS011;48077;48.104;11.702;2022-10-30T14:15:04;13.25;;;3.75;;
62102;SDS011;48077;48.104;11.702;2022-10-30T14:17:28;11.25;;;3.30;;
62102;SDS011;48077;48.104;11.702;2022-10-30T14:22:26;9.25;;;3.20;;
62102;SDS011;48077;48.104;11.702;2022-10-30T14:24:50;10.88;;;4.30;;
62102;SDS011;48077;48.104;11.702;2022-10-30T14:27:15;9.98;;;3.17;;
62102;SDS011;48077;48.104;11.702;2022-10-30T14:29:46;10.73;;;4.30;;
62102;SDS011;48077;48.104;11.702;2022-10-30T14:34:41;6.93;;;2.70;;
62102;SDS011;48077;48.104;11.702;2022-10-30T14:37:06;11.90;;;3.97;;
62102;SDS011;48077;48.104;11.702;2022-10-30T14:39:29;9.45;;;2.80;;
62102;SDS011;48077;48.104;11.702;2022-10-30T14:55:38;7.22;;;2.60;;
62102;SDS011;48077;48.104;11.702;2022-10-30T14:58:18;7.07;;;2.80;;
62102;SDS011;48077;48.104;11.702;2022-10-30T15:00:45;8.85;;;3.42;;
62102;SDS011;48077;48.104;11.702;2022-10-30T15:08:11;5.80;;;2.60;;
62102;SDS011;48077;48.104;11.702;2022-10-30T15:13:52;6.45;;;2.47;;
62102;SDS011;48077;48.104;11.702;2022-10-30T15:16:18;6.53;;;2.80;;
62102;SDS011;48077;48.104;11.702;2022-10-30T15:18:54;9.93;;;2.88;;
62102;SDS011;48077;48.104;11.702;2022-10-30T15:21:24;6.97;;;2.63;;
62102;SDS011;48077;48.104;11.702;2022-10-30T15:23:51;7.80;;;3.33;;
62102;SDS011;48077;48.104;11.702;2022-10-30T15:26:19;7.63;;;3.38;;
62102;SDS011;48077;48.104;11.702;2022-10-30T15:28:46;7.35;;;3.63;;
62102;SDS011;48077;48.104;11.702;2022-10-30T15:33:46;7.32;;;3.10;;
62102;SDS011;48077;48.104;11.702;2022-10-30T15:36:16;8.02;;;3.42;;
62102;SDS011;48077;48.104;11.702;2022-10-30T15:38:39;7.90;;;3.15;;
62102;SDS011;48077;48.104;11.702;2022-10-30T15:41:02;11.68;;;3.50;;
62102;SDS011;48077;48.104;11.702;2022-10-30T15:43:30;8.18;;;3.30;;
62102;SDS011;48077;48.104;11.702;2022-10-30T15:45:59;7.88;;;3.22;;
62102;SDS011;48077;48.104;11.702;2022-10-30T15:48:27;8.13;;;3.63;;
62102;SDS011;48077;48.104;11.702;2022-10-30T15:53:42;8.40;;;3.47;;
62102;SDS011;48077;48.104;11.702;2022-10-30T15:59:14;9.48;;;2.80;;
62102;SDS011;48077;48.104;11.702;2022-10-30T16:01:42;7.53;;;3.10;;
62102;SDS011;48077;48.104;11.702;2022-10-30T16:07:00;8.48;;;4.07;;
62102;SDS011;48077;48.104;11.702;2022-10-30T16:09:27;7.45;;;3.20;;
62102;SDS011;48077;48.104;11.702;2022-10-30T16:11:51;9.10;;;2.88;;
62102;SDS011;48077;48.104;11.702;2022-10-30T16:14:16;7.88;;;2.58;;
62102;SDS011;48077;48.104;11.702;2022-10-30T16:16:44;8.45;;;3.33;;
62102;SDS011;48077;48.104;11.702;2022-10-30T16:19:10;8.55;;;3.22;;
62102;SDS011;48077;48.104;11.702;2022-10-30T16:21:44;8.57;;;3.53;;
62102;SDS011;48077;48.104;11.702;2022-10-30T16:24:08;8.02;;;3.40;;
62102;SDS011;48077;48.104;11.702;2022-10-30T16:26:33;8.88;;;3.35;;
62102;SDS011;48077;48.104;11.702;2022-10-30T16:31:39;9.38;;;3.33;;
62102;SDS011;48077;48.104;11.702;2022-10-30T16:34:08;7.45;;;4.75;;
62102;SDS011;48077;48.104;11.702;2022-10-30T16:36:39;10.20;;;3.50;;
62102;SDS011;48077;48.104;11.702;2022-10-30T16:39:03;12.23;;;3.83;;
62102;SDS011;48077;48.104;11.702;2022-10-30T16:41:27;7.28;;;3.38;;
62102;SDS011;48077;48.104;11.702;2022-10-30T16:44:15;11.57;;;3.30;;